createdAt,value
2022-10-30T00:04:39.780Z,15.54
2022-10-30T00:09:41.718Z,15.58
2022-10-30T00:14:43.587Z,15.67
2022-10-30T00:19:45.563Z,15.75
2022-10-30T00:24:47.439Z,15.78
2022-10-30T00:29:49.271Z,15.77
2022-10-30T00:34:51.596Z,15.87
2022-10-30T00:39:53.536Z,15.87
2022-10-30T00:44:55.648Z,15.78
2022-10-30T00:50:04.003Z,15.89
2022-10-30T00:55:13.931Z,15.86
2022-10-30T01:00:17.138Z,15.92
2022-10-30T01:05:21.754Z,15.92
2022-10-30T01:10:24.308Z,15.97
2022-10-30T01:15:36.538Z,15.92
2022-10-30T01:21:00.900Z,15.99
2022-10-30T01:26:34.240Z,16.00
2022-10-30T01:31:47.251Z,16.00
2022-10-30T01:37:01.127Z,16.10
2022-10-30T01:42:40.748Z,16.04
2022-10-30T01:48:05.980Z,16.05
2022-10-30T01:53:47.344Z,15.97
2022-10-30T01:59:09.164Z,16.02
2022-10-30T02:04:13.270Z,16.08
2022-10-30T02:09:16.936Z,16.04
2022-10-30T02:14:34.575Z,15.87
2022-10-30T02:19:38.982Z,15.84
2022-10-30T02:24:40.983Z,15.81
2022-10-30T02:29:42.863Z,15.82
2022-10-30T02:34:44.863Z,15.90
2022-10-30T02:39:48.626Z,15.98
2022-10-30T02:44:50.535Z,15.99
2022-10-30T02:49:54.743Z,16.05
2022-10-30T02:54:56.600Z,16.05
2022-10-30T02:59:58.503Z,16.00
2022-10-30T03:05:00.451Z,16.00
2022-10-30T03:10:02.354Z,15.97
2022-10-30T03:15:05.390Z,16.01
2022-10-30T03:20:07.884Z,16.01
2022-10-30T03:25:10.166Z,15.98
2022-10-30T03:30:12.289Z,15.89
2022-10-30T03:35:14.511Z,15.89
2022-10-30T03:40:16.465Z,15.82
2022-10-30T03:45:18.355Z,15.91
2022-10-30T03:50:20.394Z,15.59
2022-10-30T03:55:23.592Z,15.55
2022-10-30T04:00:25.849Z,15.48
2022-10-30T04:05:33.618Z,15.45
2022-10-30T04:10:38.076Z,15.58
2022-10-30T04:15:44.046Z,15.67
2022-10-30T04:20:47.234Z,15.65
2022-10-30T04:25:50.217Z,15.77
2022-10-30T04:30:54.763Z,15.85
2022-10-30T04:35:57.164Z,15.80
2022-10-30T04:40:59.086Z,15.87
2022-10-30T04:46:15.224Z,15.85
2022-10-30T04:51:17.284Z,15.89
2022-10-30T04:56:20.009Z,15.87
2022-10-30T05:01:23.236Z,15.96
2022-10-30T05:06:27.567Z,15.89
2022-10-30T05:11:29.389Z,15.87
2022-10-30T05:16:31.425Z,15.90
2022-10-30T05:21:34.949Z,15.89
2022-10-30T05:26:36.998Z,15.80
2022-10-30T05:31:39.018Z,15.85
2022-10-30T05:37:19.104Z,15.92
2022-10-30T05:42:21.328Z,15.89
2022-10-30T05:47:23.388Z,15.96
2022-10-30T05:52:29.291Z,15.95
2022-10-30T05:57:33.725Z,15.86
2022-10-30T06:02:36.245Z,15.92
2022-10-30T06:07:38.200Z,15.78
2022-10-30T06:12:40.177Z,15.93
2022-10-30T06:18:05.063Z,16.06
2022-10-30T06:23:15.275Z,16.13
2022-10-30T06:28:24.261Z,16.25
2022-10-30T06:33:27.198Z,16.30
2022-10-30T06:38:30.215Z,16.40
2022-10-30T06:43:32.635Z,16.62
2022-10-30T06:48:39.673Z,16.79
2022-10-30T06:53:41.534Z,16.91
2022-10-30T06:59:03.674Z,16.96
2022-10-30T07:04:10.879Z,17.07
2022-10-30T07:09:12.852Z,17.20
2022-10-30T07:14:15.391Z,17.38
2022-10-30T07:19:35.076Z,17.63
2022-10-30T07:24:38.159Z,17.84
2022-10-30T07:29:58.984Z,17.83
2022-10-30T07:35:09.563Z,18.08
2022-10-30T07:40:38.863Z,17.85
2022-10-30T07:45:45.919Z,17.55
2022-10-30T07:50:56.820Z,17.66
2022-10-30T07:55:59.062Z,17.95
2022-10-30T08:01:24.009Z,17.75
2022-10-30T08:06:27.416Z,17.82
2022-10-30T08:11:29.674Z,17.35
2022-10-30T08:16:33.408Z,17.85
2022-10-30T08:21:35.339Z,17.78
2022-10-30T08:26:44.351Z,18.06
2022-10-30T08:31:51.140Z,17.99
2022-10-30T08:37:00.093Z,18.37
2022-10-30T08:42:02.132Z,18.24
2022-10-30T08:47:10.134Z,18.67
2022-10-30T08:52:13.572Z,18.36
2022-10-30T08:57:15.500Z,18.39
2022-10-30T09:02:17.524Z,18.47
2022-10-30T09:08:01.713Z,18.78
2022-10-30T09:13:22.908Z,19.46
2022-10-30T09:18:24.862Z,19.25
2022-10-30T09:23:27.038Z,19.17
2022-10-30T09:28:45.838Z,19.42
2022-10-30T09:34:08.368Z,19.59
2022-10-30T09:39:20.104Z,19.27
2022-10-30T09:44:31.493Z,19.41
2022-10-30T09:49:41.164Z,19.27
2022-10-30T09:54:55.586Z,19.08
2022-10-30T10:00:22.750Z,18.64
2022-10-30T10:05:43.949Z,18.98
2022-10-30T10:11:21.726Z,18.83
2022-10-30T10:16:28.430Z,18.61
2022-10-30T10:21:35.087Z,18.36
2022-10-30T10:27:00.367Z,18.11
2022-10-30T10:32:06.833Z,17.53
2022-10-30T10:37:32.620Z,18.23
2022-10-30T10:43:05.186Z,17.88
2022-10-30T10:48:34.643Z,18.29
2022-10-30T10:53:46.820Z,18.15
2022-10-30T10:58:53.791Z,18.54
2022-10-30T11:04:05.070Z,18.81
2022-10-30T11:09:22.170Z,18.64
2022-10-30T11:14:30.587Z,18.74
2022-10-30T11:19:32.899Z,18.59
2022-10-30T11:24:36.134Z,18.27
2022-10-30T11:29:37.980Z,17.79
2022-10-30T11:34:39.925Z,17.74
2022-10-30T11:39:42.067Z,17.61
2022-10-30T11:44:51.401Z,17.54
2022-10-30T11:49:56.757Z,17.58
2022-10-30T11:55:02.774Z,17.65
2022-10-30T12:00:13.967Z,17.88
2022-10-30T12:05:28.011Z,17.73
2022-10-30T12:10:30.830Z,18.19
2022-10-30T12:15:37.407Z,18.11
2022-10-30T12:20:39.408Z,18.81
2022-10-30T12:25:47.430Z,19.54
2022-10-30T12:30:58.912Z,19.26
2022-10-30T12:36:05.520Z,19.28
2022-10-30T12:41:07.607Z,18.32
2022-10-30T12:46:31.111Z,18.09
2022-10-30T12:52:00.294Z,17.95
2022-10-30T12:57:14.887Z,17.79
2022-10-30T13:02:27.428Z,17.65
2022-10-30T13:07:40.111Z,17.48
2022-10-30T13:12:46.351Z,17.85
2022-10-30T13:17:49.371Z,17.94
2022-10-30T13:23:10.724Z,18.19
2022-10-30T13:28:21.923Z,18.30
2022-10-30T13:33:42.056Z,18.15
2022-10-30T13:38:58.121Z,17.91
2022-10-30T13:44:05.777Z,18.21
2022-10-30T13:49:13.308Z,18.55
2022-10-30T13:54:26.582Z,18.56
2022-10-30T13:59:57.149Z,18.65
2022-10-30T14:05:22.853Z,18.55
2022-10-30T14:10:45.307Z,18.39
2022-10-30T14:15:47.346Z,18.25
2022-10-30T14:20:54.606Z,17.99
2022-10-30T14:26:03.028Z,18.08
2022-10-30T14:31:19.703Z,18.02
2022-10-30T14:36:21.551Z,17.81
2022-10-30T14:41:48.555Z,17.76
2022-10-30T14:47:02.896Z,17.85
2022-10-30T14:52:16.117Z,17.80
2022-10-30T14:57:51.368Z,17.78
2022-10-30T15:03:11.935Z,17.59
2022-10-30T15:08:22.706Z,17.43
2022-10-30T15:13:24.662Z,17.31
2022-10-30T15:18:30.538Z,17.03
2022-10-30T15:23:35.711Z,17.01
2022-10-30T15:28:38.747Z,16.92
2022-10-30T15:33:41.047Z,16.94
2022-10-30T15:38:42.916Z,16.92
2022-10-30T15:43:44.985Z,16.91
2022-10-30T15:48:48.023Z,16.87
2022-10-30T15:53:51.203Z,16.78
2022-10-30T15:58:58.514Z,16.65
2022-10-30T16:04:00.983Z,16.56
2022-10-30T16:09:04.462Z,16.65
2022-10-30T16:14:09.047Z,16.65
2022-10-30T16:19:26.344Z,16.57
2022-10-30T16:24:33.934Z,16.69
2022-10-30T16:29:36.240Z,16.65
2022-10-30T16:34:41.071Z,16.50
2022-10-30T16:39:43.846Z,16.51
2022-10-30T16:44:46.316Z,16.47
2022-10-30T16:49:52.129Z,16.43
2022-10-30T16:55:01.842Z,16.22
2022-10-30T17:00:05.597Z,16.10
2022-10-30T17:05:12.289Z,16.10
2022-10-30T17:10:44.469Z,15.99
2022-10-30T17:15:46.971Z,15.90
2022-10-30T17:21:11.702Z,15.73
2022-10-30T17:26:14.611Z,15.68
2022-10-30T17:31:22.344Z,15.63
2022-10-30T17:36:24.221Z,15.52
2022-10-30T17:41:26.193Z,15.42
2022-10-30T17:46:28.408Z,15.26
2022-10-30T17:51:32.478Z,15.11
2022-10-30T17:56:34.781Z,14.93
2022-10-30T18:01:36.849Z,14.81
2022-10-30T18:06:38.747Z,14.68
2022-10-30T18:11:40.660Z,14.52
2022-10-30T18:16:42.469Z,14.53
2022-10-30T18:21:48.341Z,14.51
2022-10-30T18:26:50.274Z,14.53
2022-10-30T18:31:52.171Z,14.53
2022-10-30T18:36:54.830Z,14.56
2022-10-30T18:41:56.826Z,14.58
2022-10-30T18:47:02.707Z,14.54
2022-10-30T18:52:05.436Z,14.32
2022-10-30T18:57:07.404Z,14.40
2022-10-30T19:02:23.245Z,14.49
2022-10-30T19:07:25.178Z,14.47
2022-10-30T19:12:27.326Z,14.47
2022-10-30T19:17:29.504Z,14.40
2022-10-30T19:22:31.541Z,14.22
2022-10-30T19:27:33.398Z,14.39
2022-10-30T19:32:35.225Z,14.29
2022-10-30T19:37:37.621Z,14.35
2022-10-30T19:42:39.422Z,14.50
2022-10-30T19:53:17.814Z,14.40
2022-10-30T19:58:22.282Z,14.36
2022-10-30T20:03:27.996Z,14.28
2022-10-30T20:08:29.982Z,14.14
2022-10-30T20:13:33.516Z,14.05
2022-10-30T20:18:36.380Z,13.98
2022-10-30T20:23:38.855Z,13.86
2022-10-30T20:28:42.356Z,13.71
2022-10-30T20:33:44.180Z,13.50
2022-10-30T20:38:46.084Z,13.34
2022-10-30T20:43:50.312Z,13.16
2022-10-30T20:48:52.135Z,13.17
2022-10-30T20:53:54.008Z,13.05
2022-10-30T20:58:56.059Z,12.99
2022-10-30T21:04:01.539Z,12.93
2022-10-30T21:09:04.497Z,12.85
2022-10-30T21:14:06.371Z,12.73
2022-10-30T21:19:08.419Z,12.61
2022-10-30T21:24:10.355Z,12.51
2022-10-30T21:29:12.349Z,12.51
2022-10-30T21:34:14.428Z,12.45
2022-10-30T21:39:16.330Z,12.43
2022-10-30T21:44:18.227Z,12.34
2022-10-30T21:49:20.177Z,12.27
2022-10-30T21:54:22.172Z,12.16
2022-10-30T21:59:24.248Z,12.16
2022-10-30T22:04:26.112Z,12.13
2022-10-30T22:09:28.055Z,12.02
2022-10-30T22:14:29.909Z,11.97
2022-10-30T22:19:31.781Z,11.99
2022-10-30T22:24:33.770Z,11.99
2022-10-30T22:29:35.625Z,11.92
2022-10-30T22:34:37.846Z,11.88
2022-10-30T22:39:39.701Z,11.84
2022-10-30T22:44:41.746Z,11.76
2022-10-30T22:49:43.599Z,11.55
2022-10-30T22:54:45.424Z,11.66
2022-10-30T22:59:47.680Z,11.68
2022-10-30T23:04:49.629Z,11.64
2022-10-30T23:09:52.075Z,11.56
2022-10-30T23:14:54.054Z,11.57
2022-10-30T23:19:55.877Z,11.39
2022-10-30T23:24:57.736Z,11.39
2022-10-30T23:29:59.750Z,11.42
2022-10-30T23:35:01.615Z,11.34
2022-10-30T23:40:03.740Z,11.32
2022-10-30T23:45:06.509Z,11.30
2022-10-30T23:50:08.763Z,11.29
2022-10-30T23:55:10.631Z,11.31
